Time;durP1;ratioP1;P1;durP2;ratioP2;P2;SDS_P1;SDS_P2;PMS_P1;PMS_P2;Temp;Humidity;BMP_temperature;BMP_pressure;BME280_temperature;BME280_humidity;BME280_pressure;Samples;Min_cycle;Max_cycle;Signal;HPM_P1;HPM_P2
2023/06/28 00:01:08;;;;;;;5.65;2.38;;;;;;;-148.88;91.55;-17125.47;5035136;28;20022;-72
2023/06/28 00:03:33;;;;;;;4.68;2.38;;;;;;;-148.88;91.59;-17125.47;5034952;28;20025;-72
2023/06/28 00:05:58;;;;;;;5.32;2.47;;;;;;;-148.88;91.80;-17125.47;5035870;28;20437;-72
2023/06/28 00:08:24;;;;;;;6.10;2.75;;;;;;;-148.88;92.39;-17125.47;5036181;28;20113;-72
2023/06/28 00:10:50;;;;;;;3.95;2.47;;;;;;;-148.88;92.24;-17125.47;5035055;28;20029;-72
2023/06/28 00:13:17;;;;;;;5.18;2.60;;;;;;;-148.88;92.92;-17125.47;5034647;28;20028;-72
2023/06/28 00:15:42;;;;;;;6.75;2.50;;;;;;;-148.88;93.17;-17125.47;5034522;28;20033;-72
2023/06/28 00:18:08;;;;;;;4.88;2.50;;;;;;;-148.88;93.50;-17125.47;5034640;28;20036;-72
2023/06/28 00:20:34;;;;;;;6.30;2.53;;;;;;;-148.88;93.46;-17125.47;5016730;28;20075;-72
2023/06/28 00:23:00;;;;;;;5.38;2.28;;;;;;;-148.88;93.07;-17125.47;5034402;28;20026;-72
2023/06/28 00:25:25;;;;;;;6.82;2.63;;;;;;;-148.88;93.14;-17125.47;5034728;28;20026;-72
2023/06/28 00:27:51;;;;;;;4.30;2.17;;;;;;;-148.88;92.84;-17125.47;5034314;28;20044;-72
2023/06/28 00:30:17;;;;;;;4.97;2.50;;;;;;;-148.88;93.21;-17125.47;5016470;28;20022;-72
2023/06/28 00:32:42;;;;;;;7.82;2.67;;;;;;;-148.88;93.16;-17125.47;5016494;28;20033;-72
2023/06/28 00:35:08;;;;;;;5.00;2.65;;;;;;;-148.88;94.09;-17125.47;5016521;28;20117;-72
2023/06/28 00:37:33;;;;;;;4.13;2.35;;;;;;;-148.88;94.16;-17125.47;5034179;28;20032;-72
2023/06/28 00:40:00;;;;;;;7.28;2.88;;;;;;;-148.88;94.38;-17125.47;5034590;28;20092;-72
2023/06/28 00:42:25;;;;;;;4.32;2.47;;;;;;;-148.88;94.02;-17125.47;5034395;28;20430;-73
2023/06/28 00:44:51;;;;;;;5.03;2.53;;;;;;;-148.88;94.30;-17125.47;5035640;28;20527;-71
2023/06/28 00:47:18;;;;;;;4.65;2.60;;;;;;;-148.88;94.53;-17125.47;5034685;28;20121;-72
2023/06/28 00:49:44;;;;;;;4.68;2.67;;;;;;;-148.88;95.01;-17125.47;5034242;28;20026;-72
2023/06/28 00:52:11;;;;;;;5.88;2.85;;;;;;;-148.88;95.72;-17125.47;5034317;28;20025;-73
2023/06/28 00:54:37;;;;;;;5.82;2.95;;;;;;;-148.88;95.69;-17125.47;5033766;28;20032;-72
2023/06/28 00:57:03;;;;;;;4.70;2.60;;;;;;;-148.88;96.21;-17125.47;5033844;28;20035;-72
2023/06/28 00:59:29;;;;;;;7.95;2.92;;;;;;;-148.88;95.73;-17125.47;5033818;28;20084;-72
2023/06/28 01:01:55;;;;;;;7.57;2.90;;;;;;;-148.88;95.62;-17125.47;5015989;28;20511;-72
2023/06/28 01:04:20;;;;;;;7.32;3.00;;;;;;;-148.88;96.10;-17125.47;5033311;28;20068;-72
2023/06/28 01:06:51;;;;;;;6.63;3.00;;;;;;;-148.88;95.83;-17125.47;5033100;28;20456;-72
2023/06/28 01:09:20;;;;;;;5.55;2.92;;;;;;;-148.88;96.70;-17125.47;5032957;28;20491;-72
2023/06/28 01:11:48;;;;;;;5.80;2.65;;;;;;;-148.88;97.26;-17125.47;5015262;28;20025;-72
2023/06/28 01:14:14;;;;;;;5.93;2.78;;;;;;;-148.88;96.64;-17125.47;5015355;28;20112;-72
2023/06/28 01:16:40;;;;;;;5.57;2.97;;;;;;;-148.88;96.82;-17125.47;5033173;28;20567;-72
2023/06/28 01:19:09;;;;;;;8.70;3.15;;;;;;;-148.88;96.98;-17125.47;5033290;28;20108;-71
2023/06/28 01:21:38;;;;;;;6.90;2.70;;;;;;;-148.88;97.17;-17125.47;5034210;28;20021;-71
2023/06/28 01:24:03;;;;;;;4.72;2.53;;;;;;;-148.88;96.97;-17125.47;5033285;28;20067;-71
2023/06/28 01:26:29;;;;;;;5.35;2.97;;;;;;;-148.88;97.31;-17125.47;5032911;28;20029;-72
2023/06/28 01:28:56;;;;;;;5.18;2.65;;;;;;;-148.88;97.38;-17125.47;5033005;28;20025;-72
2023/06/28 01:31:22;;;;;;;7.88;3.58;;;;;;;-148.88;97.94;-17125.47;5032954;28;20033;-72
2023/06/28 01:33:48;;;;;;;7.05;3.40;;;;;;;-148.88;98.22;-17125.47;5014634;28;20479;-72
2023/06/28 01:36:13;;;;;;;5.78;2.92;;;;;;;-148.88;99.50;-17125.47;5015086;28;20021;-72
2023/06/28 01:38:41;;;;;;;5.95;3.10;;;;;;;-148.88;99.94;-17125.47;5014995;28;20032;-72
2023/06/28 01:41:08;;;;;;;10.95;3.20;;;;;;;-148.88;99.45;-17125.47;5032917;28;20104;-72
2023/06/28 01:43:34;;;;;;;8.65;3.40;;;;;;;-148.88;99.28;-17125.47;5014880;28;20022;-72
2023/06/28 01:46:00;;;;;;;8.77;3.33;;;;;;;-148.88;100.00;-17125.47;5032842;28;20480;-72
2023/06/28 01:48:26;;;;;;;6.30;3.20;;;;;;;-148.88;99.45;-17125.47;5032976;28;20079;-72
2023/06/28 01:50:51;;;;;;;7.20;3.30;;;;;;;-148.88;99.33;-17125.47;5032563;28;20140;-72
2023/06/28 01:53:17;;;;;;;6.55;3.35;;;;;;;-148.88;99.73;-17125.47;5032661;28;20040;-72
2023/06/28 01:55:43;;;;;;;6.75;3.30;;;;;;;-148.88;100.00;-17125.47;5032763;28;20051;-72
2023/06/28 01:58:08;;;;;;;7.63;3.42;;;;;;;-148.88;100.00;-17125.47;5033700;28;20030;-71
2023/06/28 02:00:33;;;;;;;8.13;4.05;;;;;;;-148.88;100.00;-17125.47;5033198;28;20064;-72
2023/06/28 02:02:59;;;;;;;8.13;3.58;;;;;;;-148.88;100.00;-17125.47;5014985;28;20025;-72
2023/06/28 02:05:24;;;;;;;6.80;3.72;;;;;;;-148.88;100.00;-17125.47;5032687;28;20057;-72
2023/06/28 02:07:50;;;;;;;11.10;3.80;;;;;;;-148.88;100.00;-17125.47;5032551;28;20025;-72
2023/06/28 02:10:18;;;;;;;9.82;3.85;;;;;;;-148.88;100.00;-17125.47;5032461;28;20022;-72
2023/06/28 02:12:43;;;;;;;5.35;3.40;;;;;;;-148.88;100.00;-17125.47;5032223;28;20021;-72
2023/06/28 02:15:09;;;;;;;7.15;3.40;;;;;;;-148.88;100.00;-17125.47;5032266;28;20388;-72
2023/06/28 02:17:35;;;;;;;8.98;4.03;;;;;;;-148.88;100.00;-17125.47;5032161;28;20047;-72
2023/06/28 02:20:01;;;;;;;7.43;4.00;;;;;;;-148.88;100.00;-17125.47;5032195;28;20104;-72
2023/06/28 02:22:26;;;;;;;6.93;3.83;;;;;;;-148.88;100.00;-17125.47;5032308;28;20099;-72
2023/06/28 02:24:52;;;;;;;8.93;3.70;;;;;;;-148.88;100.00;-17125.47;5032969;28;20032;-72
2023/06/28 02:27:17;;;;;;;11.13;4.25;;;;;;;-148.88;100.00;-17125.47;5032366;28;20032;-71
2023/06/28 02:29:43;;;;;;;6.30;3.70;;;;;;;-148.88;100.00;-17125.47;5032301;28;20171;-71
2023/06/28 02:32:08;;;;;;;6.70;3.60;;;;;;;-148.88;100.00;-17125.47;5014679;28;20101;-72
2023/06/28 02:34:34;;;;;;;8.55;3.80;;;;;;;-148.88;100.00;-17125.47;5015141;28;20053;-72
2023/06/28 02:37:00;;;;;;;8.32;4.35;;;;;;;-148.88;100.00;-17125.47;5033214;28;20028;-72
2023/06/28 02:39:25;;;;;;;7.63;4.22;;;;;;;-148.88;100.00;-17125.47;5032644;28;20033;-72
2023/06/28 02:41:51;;;;;;;8.13;4.88;;;;;;;-148.88;100.00;-17125.47;5032342;28;20025;-72
2023/06/28 02:44:16;;;;;;;7.57;4.68;;;;;;;-148.88;100.00;-17125.47;5033008;28;20036;-72
2023/06/28 02:46:41;;;;;;;8.27;4.82;;;;;;;-148.88;100.00;-17125.47;5035956;28;20422;-72
2023/06/28 02:49:07;;;;;;;6.70;4.43;;;;;;;-148.88;100.00;-17125.47;5035766;28;20029;-72
2023/06/28 02:51:32;;;;;;;10.05;4.65;;;;;;;-148.88;100.00;-17125.47;5017845;28;20025;-72
2023/06/28 02:53:58;;;;;;;10.43;4.60;;;;;;;-148.88;100.00;-17125.47;5045512;22;20029;-85
2023/06/28 02:56:23;;;;;;;8.27;4.65;;;;;;;-148.88;100.00;-17125.47;5038397;28;20521;-86
2023/06/28 02:58:49;;;;;;;6.97;4.38;;;;;;;-148.88;100.00;-17125.47;5038189;28;20036;-86
2023/06/28 03:01:15;;;;;;;8.45;4.45;;;;;;;-148.88;100.00;-17125.47;5056143;28;20459;-85
2023/06/28 03:03:41;;;;;;;7.60;4.63;;;;;;;-148.88;100.00;-17125.47;5038042;28;20033;-85
2023/06/28 03:06:06;;;;;;;8.73;4.80;;;;;;;-148.88;100.00;-17125.47;5038155;28;20025;-85
2023/06/28 03:08:31;;;;;;;10.57;4.88;;;;;;;-148.88;100.00;-17125.47;5055993;28;20064;-85
2023/06/28 03:10:57;;;;;;;9.43;4.47;;;;;;;-148.88;100.00;-17125.47;5055600;28;20057;-86
2023/06/28 03:13:23;;;;;;;7.30;4.82;;;;;;;-148.88;100.00;-17125.47;5054586;28;20040;-85
2023/06/28 03:15:48;;;;;;;8.38;5.03;;;;;;;-148.88;100.00;-17125.47;5037946;28;20335;-85
2023/06/28 03:18:13;;;;;;;9.75;5.55;;;;;;;-148.88;100.00;-17125.47;5038166;28;20112;-85
2023/06/28 03:20:39;;;;;;;10.13;5.20;;;;;;;-148.88;100.00;-17125.47;5055877;28;20114;-85
2023/06/28 03:23:04;;;;;;;10.52;5.00;;;;;;;-148.88;100.00;-17125.47;5037739;28;20041;-86
2023/06/28 03:25:30;;;;;;;10.88;5.07;;;;;;;-148.88;100.00;-17125.47;5038319;28;20070;-85
2023/06/28 03:27:56;;;;;;;6.55;4.78;;;;;;;-148.88;100.00;-17125.47;5056048;28;20024;-86
2023/06/28 03:30:29;;;;;;;9.35;5.10;;;;;;;-148.88;100.00;-17125.47;5055560;28;20510;-86
2023/06/28 03:32:55;;;;;;;9.10;5.32;;;;;;;-148.88;100.00;-17125.47;5054450;28;20064;-85
2023/06/28 03:35:20;;;;;;;7.93;5.53;;;;;;;-148.88;100.00;-17125.47;5038723;28;20130;-86
2023/06/28 03:37:53;;;;;;;8.75;5.00;;;;;;;-148.88;100.00;-17125.47;5037479;28;20017;-85
2023/06/28 03:40:20;;;;;;;9.60;5.32;;;;;;;-148.88;100.00;-17125.47;5054669;28;20108;-85
2023/06/28 03:42:45;;;;;;;8.35;5.32;;;;;;;-148.88;100.00;-17125.47;5053915;28;20025;-86
2023/06/28 03:45:13;;;;;;;9.77;5.10;;;;;;;-148.88;100.00;-17125.47;5037418;28;20029;-86
2023/06/28 03:47:39;;;;;;;11.02;5.55;;;;;;;-148.88;100.00;-17125.47;5038124;28;20079;-88
2023/06/28 03:50:04;;;;;;;10.13;5.47;;;;;;;-148.88;100.00;-17125.47;5055845;28;20433;-86
2023/06/28 03:52:30;;;;;;;11.15;5.03;;;;;;;-148.88;100.00;-17125.47;5037700;28;20025;-87
2023/06/28 03:54:55;;;;;;;10.60;5.32;;;;;;;-148.88;100.00;-17125.47;5055072;28;20116;-86
2023/06/28 03:57:21;;;;;;;9.70;5.63;;;;;;;-148.88;100.00;-17125.47;5038286;28;20425;-87
2023/06/28 03:59:46;;;;;;;9.98;5.13;;;;;;;-148.88;100.00;-17125.47;5039554;28;20317;-86
2023/06/28 04:02:12;;;;;;;9.48;5.15;;;;;;;-148.88;100.00;-17125.47;5038156;28;20029;-86
2023/06/28 04:04:38;;;;;;;10.82;5.30;;;;;;;-148.88;100.00;-17125.47;5059249;28;20454;-86
2023/06/28 04:07:03;;;;;;;11.10;5.57;;;;;;;-148.88;100.00;-17125.47;5038360;28;20028;-87
2023/06/28 04:09:29;;;;;;;8.82;5.70;;;;;;;-148.88;100.00;-17125.47;5055121;28;20051;-87
2023/06/28 04:11:54;;;;;;;9.70;5.60;;;;;;;-148.88;100.00;-17125.47;5037509;28;20110;-90
2023/06/28 04:14:20;;;;;;;7.95;5.13;;;;;;;-148.88;100.00;-17125.47;5037452;28;20017;-85
2023/06/28 04:16:45;;;;;;;10.20;5.20;;;;;;;-148.88;100.00;-17125.47;5037154;28;20116;-86
2023/06/28 04:19:10;;;;;;;10.43;5.70;;;;;;;-148.88;100.00;-17125.47;5037864;28;20175;-87
2023/06/28 04:21:36;;;;;;;11.23;5.60;;;;;;;-148.88;100.00;-17125.47;5038213;28;20025;-88
2023/06/28 04:24:02;;;;;;;8.65;4.88;;;;;;;-148.88;100.00;-17125.47;5038263;28;20029;-87
2023/06/28 04:26:27;;;;;;;11.48;4.68;;;;;;;-148.88;100.00;-17125.47;5054251;28;20028;-87
2023/06/28 04:28:53;;;;;;;8.65;4.85;;;;;;;-148.88;100.00;-17125.47;5037377;28;20025;-87
2023/06/28 04:31:18;;;;;;;11.05;5.40;;;;;;;-148.88;100.00;-17125.47;5055411;28;20365;-87
2023/06/28 04:33:44;;;;;;;9.05;5.00;;;;;;;-148.88;100.00;-17125.47;5054306;28;20025;-86
2023/06/28 04:36:11;;;;;;;11.57;4.85;;;;;;;-148.88;100.00;-17125.47;5036571;28;20028;-85
2023/06/28 04:38:37;;;;;;;8.95;4.95;;;;;;;-148.88;100.00;-17125.47;5038830;28;20035;-85
2023/06/28 04:41:03;;;;;;;9.57;4.72;;;;;;;-148.88;100.00;-17125.47;5055017;28;20021;-85
2023/06/28 04:43:28;;;;;;;12.15;5.68;;;;;;;-148.88;100.00;-17125.47;5055697;28;20071;-85
2023/06/28 04:45:55;;;;;;;10.70;5.10;;;;;;;-148.88;100.00;-17125.47;5036726;28;20029;-85
2023/06/28 04:48:21;;;;;;;11.43;5.00;;;;;;;-148.88;100.00;-17125.47;5055308;28;20025;-84
2023/06/28 04:50:47;;;;;;;8.57;5.20;;;;;;;-148.88;100.00;-17125.47;5037178;28;20017;-85
2023/06/28 04:53:13;;;;;;;9.50;4.93;;;;;;;-148.88;100.00;-17125.47;5036279;28;20116;-86
2023/06/28 04:55:38;;;;;;;8.63;4.88;;;;;;;-148.88;100.00;-17125.47;5036253;28;20083;-87
2023/06/28 04:58:05;;;;;;;11.38;5.07;;;;;;;-148.88;100.00;-17125.47;5036376;28;20155;-86
2023/06/28 05:00:32;;;;;;;10.32;5.32;;;;;;;-148.88;100.00;-17125.47;5037373;28;20017;-87
2023/06/28 05:03:00;;;;;;;10.30;5.07;;;;;;;-148.88;100.00;-17125.47;5036077;28;20025;-88
2023/06/28 05:05:26;;;;;;;11.00;5.35;;;;;;;-148.88;100.00;-17125.47;5052862;28;20444;-83
2023/06/28 05:07:52;;;;;;;8.45;5.28;;;;;;;-148.88;100.00;-17125.47;5052289;28;20035;-85
2023/06/28 05:10:18;;;;;;;10.57;4.80;;;;;;;-148.88;100.00;-17125.47;5036333;28;20020;-84
2023/06/28 05:12:43;;;;;;;10.00;5.60;;;;;;;-148.88;100.00;-17125.47;5036550;28;20025;-85
2023/06/28 05:15:12;;;;;;;10.63;5.50;;;;;;;-148.88;100.00;-17125.47;5036316;28;20025;-84
2023/06/28 05:17:37;;;;;;;11.70;5.78;;;;;;;-148.88;100.00;-17125.47;5037416;28;20353;-83
2023/06/28 05:20:04;;;;;;;9.63;5.60;;;;;;;-148.88;100.00;-17125.47;5055251;28;20589;-84
2023/06/28 05:22:29;;;;;;;9.13;5.25;;;;;;;-148.88;100.00;-17125.47;5037255;28;20041;-84
2023/06/28 05:24:54;;;;;;;10.05;5.20;;;;;;;-148.88;100.00;-17125.47;5037365;28;20116;-84
2023/06/28 05:27:20;;;;;;;9.95;5.68;;;;;;;-148.88;100.00;-17125.47;5053647;28;20025;-85
2023/06/28 05:29:45;;;;;;;8.93;5.38;;;;;;;-148.88;100.00;-17125.47;5055318;28;20078;-84
2023/06/28 05:32:13;;;;;;;11.00;4.95;;;;;;;-148.88;100.00;-17125.47;5038895;28;20056;-83
2023/06/28 05:34:39;;;;;;;9.73;5.13;;;;;;;-148.88;100.00;-17125.47;5036541;28;20056;-84
2023/06/28 05:37:05;;;;;;;10.55;5.18;;;;;;;-148.88;100.00;-17125.47;5036806;28;20035;-84
2023/06/28 05:39:30;;;;;;;8.80;5.20;;;;;;;-148.88;100.00;-17125.47;5037737;28;20025;-85
2023/06/28 05:41:56;;;;;;;11.13;5.50;;;;;;;-148.88;100.00;-17125.47;5054005;28;20155;-84
2023/06/28 05:44:21;;;;;;;9.20;5.15;;;;;;;-148.88;100.00;-17125.47;5035374;28;20032;-83
2023/06/28 05:46:47;;;;;;;9.38;5.15;;;;;;;-148.88;100.00;-17125.47;5035525;28;20025;-83
2023/06/28 05:49:12;;;;;;;13.25;5.22;;;;;;;-148.88;100.00;-17125.47;5052431;28;20127;-83
2023/06/28 05:51:38;;;;;;;9.70;4.97;;;;;;;-148.88;100.00;-17125.47;5052622;28;20454;-84
2023/06/28 05:54:04;;;;;;;8.35;4.25;;;;;;;-148.88;100.00;-17125.47;5035902;28;20375;-84
2023/06/28 05:56:29;;;;;;;7.60;4.88;;;;;;;-148.88;100.00;-17125.47;5036153;28;20033;-83
2023/06/28 05:58:56;;;;;;;8.02;4.63;;;;;;;-148.88;100.00;-17125.47;5036935;28;20025;-84
2023/06/28 06:01:23;;;;;;;8.93;4.53;;;;;;;-148.88;100.00;-17125.47;5053215;28;20460;-84
2023/06/28 06:03:49;;;;;;;9.45;4.15;;;;;;;-148.88;100.00;-17125.47;5036520;28;20118;-83
2023/06/28 06:06:14;;;;;;;12.18;4.80;;;;;;;-148.88;100.00;-17125.47;5052954;28;20352;-84
2023/06/28 06:08:40;;;;;;;9.90;4.55;;;;;;;-148.88;100.00;-17125.47;5052597;28;20033;-85
2023/06/28 06:11:05;;;;;;;10.73;5.07;;;;;;;-148.88;100.00;-17125.47;5052707;28;20024;-84
2023/06/28 06:13:31;;;;;;;10.57;4.40;;;;;;;-148.88;100.00;-17125.47;5038465;28;20032;-84
2023/06/28 06:15:56;;;;;;;8.57;4.40;;;;;;;-148.88;100.00;-17125.47;5035511;28;20029;-84
2023/06/28 06:18:22;;;;;;;10.40;4.57;;;;;;;-148.88;100.00;-17125.47;5036185;28;20501;-85
2023/06/28 06:20:48;;;;;;;11.82;4.40;;;;;;;-148.88;100.00;-17125.47;5039168;28;20017;-83
2023/06/28 06:23:13;;;;;;;10.77;4.82;;;;;;;-148.88;100.00;-17125.47;5040997;28;20121;-87
2023/06/28 06:25:39;;;;;;;12.80;4.50;;;;;;;-148.88;100.00;-17125.47;5041905;28;20059;-85
2023/06/28 06:28:04;;;;;;;8.98;4.60;;;;;;;-148.88;100.00;-17125.47;5040153;28;20078;-85
2023/06/28 06:30:30;;;;;;;10.35;4.00;;;;;;;-148.88;100.00;-17125.47;5041757;28;20021;-85
2023/06/28 06:32:55;;;;;;;8.93;4.10;;;;;;;-148.88;100.00;-17125.47;5042864;28;20472;-86
2023/06/28 06:35:21;;;;;;;8.38;4.20;;;;;;;-148.88;100.00;-17125.47;5043137;28;20017;-85
2023/06/28 06:37:46;;;;;;;9.65;3.80;;;;;;;-148.88;100.00;-17125.47;5041783;28;20070;-85
2023/06/28 06:40:12;;;;;;;12.30;4.68;;;;;;;-148.88;100.00;-17125.47;5042014;28;20021;-85
2023/06/28 06:42:38;;;;;;;9.35;3.65;;;;;;;-148.88;100.00;-17125.47;5040635;28;20021;-85
2023/06/28 06:45:05;;;;;;;11.60;3.92;;;;;;;-148.88;100.00;-17125.47;5041404;28;20054;-85
2023/06/28 06:47:30;;;;;;;8.20;3.60;;;;;;;-148.88;100.00;-17125.47;5040918;28;20504;-85
2023/06/28 06:49:56;;;;;;;6.85;3.40;;;;;;;-148.88;100.00;-17125.47;5041179;28;20537;-85
2023/06/28 06:52:21;;;;;;;7.72;3.40;;;;;;;-148.88;100.00;-17125.47;5041646;28;20121;-85
2023/06/28 06:54:47;;;;;;;7.03;3.65;;;;;;;-148.88;100.00;-17125.47;5040451;28;20028;-85
2023/06/28 06:57:14;;;;;;;12.95;3.90;;;;;;;-148.88;100.00;-17125.47;5040186;28;20463;-85
2023/06/28 06:59:40;;;;;;;12.77;4.15;;;;;;;-148.88;100.00;-17125.47;5038612;28;20039;-83
2023/06/28 07:02:05;;;;;;;8.02;3.78;;;;;;;-148.88;100.00;-17125.47;5038264;28;20029;-85
2023/06/28 07:04:31;;;;;;;9.27;3.78;;;;;;;-148.88;100.00;-17125.47;5040051;28;20023;-83
2023/06/28 07:06:56;;;;;;;6.72;3.70;;;;;;;-148.88;100.00;-17125.47;5039748;28;20506;-85
2023/06/28 07:09:22;;;;;;;9.45;3.97;;;;;;;-148.88;99.99;-17125.47;5039357;28;20033;-85
2023/06/28 07:11:47;;;;;;;10.80;4.18;;;;;;;-148.88;100.00;-17125.47;5039680;28;20021;-84
2023/06/28 07:14:13;;;;;;;10.65;3.90;;;;;;;-148.88;99.35;-17125.47;5040062;28;20441;-84
2023/06/28 07:16:39;;;;;;;6.88;3.42;;;;;;;-148.88;98.38;-17125.47;5055904;28;20021;-84
2023/06/28 07:19:06;;;;;;;10.93;4.18;;;;;;;-148.88;98.89;-17125.47;5039279;28;20052;-84
2023/06/28 07:21:31;;;;;;;8.57;3.65;;;;;;;-148.88;97.71;-17125.47;5039540;28;20074;-83
2023/06/28 07:24:00;;;;;;;7.53;3.85;;;;;;;-148.88;98.70;-17125.47;5039413;28;20021;-85
2023/06/28 07:26:25;;;;;;;9.80;4.05;;;;;;;-148.88;96.25;-17125.47;5038293;28;20029;-85
2023/06/28 07:28:50;;;;;;;9.50;3.70;;;;;;;-148.88;97.44;-17125.47;5038537;28;20025;-84
2023/06/28 07:31:16;;;;;;;7.43;3.72;;;;;;;-148.88;96.48;-17125.47;5053726;28;20470;-86
2023/06/28 07:33:42;;;;;;;7.25;3.80;;;;;;;-148.88;95.15;-17125.47;5038341;28;20033;-87
2023/06/28 07:36:07;;;;;;;7.82;4.35;;;;;;;-148.88;93.72;-17125.47;5038029;28;20029;-86
2023/06/28 07:38:32;;;;;;;6.75;3.53;;;;;;;-148.88;94.48;-17125.47;5038006;28;20124;-86
2023/06/28 07:40:58;;;;;;;10.68;4.00;;;;;;;-148.88;94.05;-17125.47;5037825;28;20019;-85
2023/06/28 07:43:23;;;;;;;9.82;3.35;;;;;;;-148.88;94.65;-17125.47;5056600;28;20083;-83
2023/06/28 07:45:52;;;;;;;7.82;3.53;;;;;;;-148.88;93.42;-17125.47;5040242;28;20049;-83
2023/06/28 07:48:18;;;;;;;10.77;4.00;;;;;;;-148.88;90.44;-17125.47;5040644;28;20025;-85
2023/06/28 07:50:44;;;;;;;10.32;3.42;;;;;;;-148.88;91.31;-17125.47;5038061;28;20112;-86
2023/06/28 07:53:10;;;;;;;8.60;3.30;;;;;;;-148.88;89.76;-17125.47;5037962;28;20039;-86
2023/06/28 07:55:35;;;;;;;7.32;3.00;;;;;;;-148.88;87.50;-17125.47;5057940;28;20105;-82
2023/06/28 07:58:01;;;;;;;11.30;3.70;;;;;;;-148.88;89.71;-17125.47;5038634;28;20025;-85
2023/06/28 08:00:28;;;;;;;5.72;2.78;;;;;;;-148.88;86.65;-17125.47;5039128;28;20563;-84
2023/06/28 08:02:54;;;;;;;7.35;2.67;;;;;;;-148.88;85.02;-17125.47;5058498;28;20032;-84
2023/06/28 08:05:20;;;;;;;7.90;2.53;;;;;;;-148.88;86.70;-17125.47;5055632;28;20025;-86
2023/06/28 08:07:46;;;;;;;8.50;3.03;;;;;;;-148.88;85.93;-17125.47;5054659;28;20048;-85
2023/06/28 08:10:11;;;;;;;7.00;2.60;;;;;;;-148.88;84.04;-17125.47;5055742;28;20028;-88
2023/06/28 08:12:37;;;;;;;9.80;2.88;;;;;;;-148.88;83.83;-17125.47;5038850;28;20033;-85
2023/06/28 08:15:02;;;;;;;9.77;2.50;;;;;;;-148.88;83.44;-17125.47;5038113;28;20445;-85
2023/06/28 08:17:28;;;;;;;6.32;2.10;;;;;;;-148.88;83.28;-17125.47;5038189;28;20025;-84
2023/06/28 08:19:56;;;;;;;10.05;2.60;;;;;;;-148.88;83.47;-17125.47;5039693;28;20021;-84
2023/06/28 08:22:22;;;;;;;5.75;2.45;;;;;;;-148.88;80.38;-17125.47;5055374;28;20028;-85
2023/06/28 08:24:48;;;;;;;11.07;2.53;;;;;;;-148.88;80.91;-17125.47;5058282;28;20021;-83
2023/06/28 08:27:14;;;;;;;8.45;2.53;;;;;;;-148.88;81.46;-17125.47;5039398;28;20024;-83
2023/06/28 08:29:39;;;;;;;8.60;2.38;;;;;;;-148.88;80.91;-17125.47;5057199;28;20028;-83
2023/06/28 08:32:05;;;;;;;7.45;2.20;;;;;;;-148.88;81.65;-17125.47;5059488;28;20031;-84
2023/06/28 08:34:30;;;;;;;6.10;1.90;;;;;;;-148.88;78.47;-17125.47;5058168;28;20079;-83
2023/06/28 08:36:55;;;;;;;5.25;1.80;;;;;;;-148.88;76.91;-17125.47;5040450;28;20475;-83
2023/06/28 08:39:21;;;;;;;7.25;2.10;;;;;;;-148.88;78.58;-17125.47;5039997;28;20048;-82
2023/06/28 08:41:48;;;;;;;7.82;2.10;;;;;;;-148.88;77.07;-17125.47;5038132;28;20060;-84
2023/06/28 08:44:14;;;;;;;4.72;2.05;;;;;;;-148.88;78.10;-17125.47;5039447;28;20118;-85
2023/06/28 08:46:43;;;;;;;6.38;2.70;;;;;;;-148.88;75.67;-17125.47;5062171;28;20391;-86
2023/06/28 08:49:08;;;;;;;4.75;2.05;;;;;;;-148.88;75.72;-17125.47;5043642;28;20040;-86
2023/06/28 08:51:34;;;;;;;4.88;2.10;;;;;;;-148.88;75.82;-17125.47;5055240;28;20068;-86
2023/06/28 08:53:59;;;;;;;9.00;2.55;;;;;;;-148.88;78.10;-17125.47;5055164;28;20033;-85
2023/06/28 08:56:27;;;;;;;8.00;1.88;;;;;;;-148.88;75.70;-17125.47;5042955;28;20044;-85
2023/06/28 08:58:54;;;;;;;6.32;2.03;;;;;;;-148.88;72.62;-17125.47;5059363;28;20021;-85
2023/06/28 09:01:23;;;;;;;5.35;1.63;;;;;;;-148.88;71.58;-17125.47;5058687;28;20107;-87
2023/06/28 09:03:49;;;;;;;5.20;1.58;;;;;;;-148.88;70.55;-17125.47;5039270;23;20096;-73
2023/06/28 09:06:14;;;;;;;4.85;1.67;;;;;;;-148.88;69.77;-17125.47;5015113;28;20104;-73
2023/06/28 09:08:42;;;;;;;4.35;1.60;;;;;;;-148.88;66.24;-17125.47;5015663;28;20049;-72
2023/06/28 09:11:08;;;;;;;3.92;1.85;;;;;;;-148.88;70.61;-17125.47;4996528;28;20032;-72
2023/06/28 09:13:34;;;;;;;5.25;1.77;;;;;;;-148.88;72.00;-17125.47;5014417;28;20033;-72
2023/06/28 09:16:00;;;;;;;3.97;2.13;;;;;;;-148.88;73.12;-17125.47;5014670;28;20030;-72
2023/06/28 09:18:26;;;;;;;6.25;2.30;;;;;;;-148.88;73.61;-17125.47;4996213;28;20017;-71
2023/06/28 09:20:54;;;;;;;4.82;1.85;;;;;;;-148.88;71.53;-17125.47;5013795;28;20669;-72
2023/06/28 09:23:23;;;;;;;2.72;1.02;;;;;;;-148.88;62.20;-17125.47;5013699;28;20026;-72
2023/06/28 09:25:49;;;;;;;3.70;1.15;;;;;;;-148.88;63.25;-17125.47;5013690;28;20022;-73
2023/06/28 09:28:15;;;;;;;6.20;1.80;;;;;;;-148.88;66.65;-17125.47;5013630;28;20028;-72
2023/06/28 09:30:40;;;;;;;5.03;1.55;;;;;;;-148.88;68.25;-17125.47;5014021;28;20068;-74
2023/06/28 09:33:06;;;;;;;4.78;1.73;;;;;;;-148.88;65.72;-17125.47;5013742;28;20038;-72
2023/06/28 09:35:31;;;;;;;6.18;2.20;;;;;;;-148.88;66.71;-17125.47;5013935;28;20024;-72
2023/06/28 09:38:04;;;;;;;4.75;1.70;;;;;;;-148.88;67.04;-17125.47;5014143;28;20516;-73
2023/06/28 09:40:34;;;;;;;4.68;1.98;;;;;;;-148.88;65.21;-17125.47;5014003;28;20018;-73
2023/06/28 09:42:59;;;;;;;5.53;2.40;;;;;;;-148.88;65.81;-17125.47;4996838;28;20057;-73
2023/06/28 09:45:26;;;;;;;4.63;2.40;;;;;;;-148.88;66.51;-17125.47;5014184;28;20028;-73
2023/06/28 09:48:02;;;;;;;5.75;2.33;;;;;;;-148.88;67.73;-17125.47;5013938;28;20053;-73
2023/06/28 09:50:37;;;;;;;5.45;1.98;;;;;;;-148.88;69.31;-17125.47;5013676;28;20052;-73
2023/06/28 09:53:21;;;;;;;8.02;2.30;;;;;;;-148.88;69.95;-17125.47;4995635;28;20036;-73
2023/06/28 09:55:52;;;;;;;5.22;1.92;;;;;;;-148.88;59.47;-17125.47;5013364;28;20044;-72
2023/06/28 09:58:19;;;;;;;5.38;2.33;;;;;;;-148.88;62.59;-17125.47;5013654;28;20055;-72
2023/06/28 10:00:49;;;;;;;5.90;2.30;;;;;;;-148.88;64.76;-17125.47;4995607;28;20487;-72
2023/06/28 10:03:25;;;;;;;4.50;2.25;;;;;;;-148.88;64.96;-17125.47;5013491;28;20026;-72
2023/06/28 10:05:54;;;;;;;5.10;2.10;;;;;;;-148.88;62.12;-17125.47;4995744;28;20026;-72
2023/06/28 10:08:23;;;;;;;7.88;2.47;;;;;;;-148.88;63.54;-17125.47;4996072;28;20488;-72
2023/06/28 10:10:54;;;;;;;6.50;2.67;;;;;;;-148.88;63.13;-17125.47;4995673;28;20033;-72
2023/06/28 10:13:21;;;;;;;4.90;2.13;;;;;;;-148.88;65.11;-17125.47;5013367;28;20033;-73
2023/06/28 10:16:17;;;;;;;3.80;1.80;;;;;;;-148.88;65.13;-17125.47;5013324;28;20022;-74
2023/06/28 10:18:43;;;;;;;5.55;2.13;;;;;;;-148.88;63.73;-17125.47;5013724;28;20021;-73
2023/06/28 10:21:09;;;;;;;4.47;2.17;;;;;;;-148.88;62.00;-17125.47;4996112;28;20021;-73
2023/06/28 10:23:35;;;;;;;7.75;2.20;;;;;;;-148.88;62.13;-17125.47;5013419;28;20026;-73
2023/06/28 10:26:05;;;;;;;6.13;2.42;;;;;;;-148.88;62.48;-17125.47;5013297;28;20081;-72
2023/06/28 10:28:34;;;;;;;4.15;1.88;;;;;;;-148.88;62.44;-17125.47;5012949;28;20422;-72
2023/06/28 10:31:00;;;;;;;4.10;1.77;;;;;;;-148.88;62.12;-17125.47;4995323;28;20021;-74
2023/06/28 10:33:31;;;;;;;5.53;1.80;;;;;;;-148.88;63.73;-17125.47;5012923;28;20483;-72
2023/06/28 10:35:57;;;;;;;6.47;2.65;;;;;;;-148.88;64.33;-17125.47;5013001;28;20057;-72
2023/06/28 10:38:23;;;;;;;7.38;2.15;;;;;;;-148.88;64.68;-17125.47;5012941;28;20105;-72
2023/06/28 10:40:48;;;;;;;5.03;2.25;;;;;;;-148.88;63.71;-17125.47;5012893;28;20018;-72
2023/06/28 10:43:24;;;;;;;7.22;2.00;;;;;;;-148.88;63.12;-17125.47;4995202;28;20121;-72
2023/06/28 10:45:51;;;;;;;5.18;2.05;;;;;;;-148.88;61.19;-17125.47;5012851;28;20034;-73
2023/06/28 10:48:21;;;;;;;7.15;2.10;;;;;;;-148.88;62.19;-17125.47;5013235;28;20053;-72
2023/06/28 10:50:47;;;;;;;6.88;2.05;;;;;;;-148.88;61.68;-17125.47;4995576;28;20029;-72
2023/06/28 10:53:28;;;;;;;5.78;2.00;;;;;;;-148.88;62.36;-17125.47;5013164;28;20029;-73
2023/06/28 10:56:12;;;;;;;7.90;2.05;;;;;;;-148.88;60.16;-17125.47;5013631;28;20400;-73
2023/06/28 10:58:40;;;;;;;4.43;1.75;;;;;;;-148.88;60.23;-17125.47;5013128;28;20052;-72
2023/06/28 11:01:08;;;;;;;3.83;1.77;;;;;;;-148.88;60.04;-17125.47;5012934;28;20056;-72